KSZT

Sandpoint Airport

Sandpoint, Idaho, USA
METAR KSZT 100615Z AUTO 00000KT 10SM OVC055 M01/M04 A3022 RMK AO2
Observed Flight Rules
Dec-10 @ 06:15 UTC (14 minutes ago) Visual Flight Rules
Visibility Clouds
10 miles
  • Overcast at 5,500' AGL
Temperatures Readings
Current -1°C / 30°F
Dewpoint -4°C / 25°F
Humidity 80%
Altimeter 30.22" Hg
Pressure 1023 hPa
Elevation 648
METAR KSZT 100615Z AUTO 00000KT 10SM OVC055 M01/M04 A3022 RMK AO2
Observed Flight Rules
Dec-10 @ 06:15 UTC
(14 minutes ago)
VFR
Clouds
  • Overcast at 5,500' AGL
Temperature Dewpoint
-1°C / 30°F -4°C / 25°F
Humidity Altimeter Pressure
80% 30.22" Hg 1023 hPa